sensor_id;sensor_type;location;lat;lon;timestamp;P1;durP1;ratioP1;P2;durP2;ratioP2
73599;SDS011;61877;48.246;9.220;2022-10-31T00:00:39;12.10;;;4.18;;
73599;SDS011;61877;48.246;9.220;2022-10-31T00:03:06;12.87;;;3.70;;
73599;SDS011;61877;48.246;9.220;2022-10-31T00:05:32;12.85;;;3.85;;
73599;SDS011;61877;48.246;9.220;2022-10-31T00:07:57;12.15;;;4.10;;
73599;SDS011;61877;48.246;9.220;2022-10-31T00:10:23;12.33;;;4.33;;
73599;SDS011;61877;48.246;9.220;2022-10-31T00:12:48;13.67;;;4.30;;
73599;SDS011;61877;48.246;9.220;2022-10-31T00:15:13;11.63;;;4.20;;
73599;SDS011;61877;48.246;9.220;2022-10-31T00:17:39;12.13;;;3.93;;
73599;SDS011;61877;48.246;9.220;2022-10-31T00:20:06;11.07;;;4.10;;
73599;SDS011;61877;48.246;9.220;2022-10-31T00:22:33;11.35;;;4.40;;
73599;SDS011;61877;48.246;9.220;2022-10-31T00:24:58;14.27;;;4.40;;
73599;SDS011;61877;48.246;9.220;2022-10-31T00:27:23;13.83;;;4.60;;
73599;SDS011;61877;48.246;9.220;2022-10-31T00:29:49;14.57;;;4.23;;
73599;SDS011;61877;48.246;9.220;2022-10-31T00:32:14;12.83;;;4.73;;
73599;SDS011;61877;48.246;9.220;2022-10-31T00:34:39;11.10;;;4.00;;
73599;SDS011;61877;48.246;9.220;2022-10-31T00:37:06;10.87;;;3.60;;
73599;SDS011;61877;48.246;9.220;2022-10-31T00:39:32;11.93;;;4.43;;
73599;SDS011;61877;48.246;9.220;2022-10-31T00:41:57;10.60;;;3.60;;
73599;SDS011;61877;48.246;9.220;2022-10-31T00:44:22;13.43;;;4.20;;
73599;SDS011;61877;48.246;9.220;2022-10-31T00:46:48;9.33;;;3.67;;
73599;SDS011;61877;48.246;9.220;2022-10-31T00:49:13;13.00;;;4.17;;
73599;SDS011;61877;48.246;9.220;2022-10-31T00:51:38;12.05;;;4.13;;
73599;SDS011;61877;48.246;9.220;2022-10-31T00:54:05;10.03;;;3.40;;
73599;SDS011;61877;48.246;9.220;2022-10-31T00:56:31;12.20;;;4.07;;
73599;SDS011;61877;48.246;9.220;2022-10-31T00:58:56;10.30;;;3.77;;
73599;SDS011;61877;48.246;9.220;2022-10-31T01:01:22;9.53;;;3.90;;
73599;SDS011;61877;48.246;9.220;2022-10-31T01:03:47;10.63;;;3.83;;
73599;SDS011;61877;48.246;9.220;2022-10-31T01:06:13;10.10;;;3.87;;
73599;SDS011;61877;48.246;9.220;2022-10-31T01:08:38;12.37;;;4.80;;
73599;SDS011;61877;48.246;9.220;2022-10-31T01:11:07;10.45;;;4.43;;
73599;SDS011;61877;48.246;9.220;2022-10-31T01:13:35;13.43;;;4.78;;
73599;SDS011;61877;48.246;9.220;2022-10-31T01:16:01;11.20;;;4.30;;
73599;SDS011;61877;48.246;9.220;2022-10-31T01:18:29;11.23;;;4.25;;
73599;SDS011;61877;48.246;9.220;2022-10-31T01:20:58;11.30;;;4.75;;
73599;SDS011;61877;48.246;9.220;2022-10-31T01:23:25;10.98;;;4.47;;
73599;SDS011;61877;48.246;9.220;2022-10-31T01:25:58;10.63;;;4.23;;
73599;SDS011;61877;48.246;9.220;2022-10-31T01:28:25;11.07;;;4.53;;
73599;SDS011;61877;48.246;9.220;2022-10-31T01:30:51;12.43;;;4.40;;
73599;SDS011;61877;48.246;9.220;2022-10-31T01:33:19;11.57;;;4.43;;
73599;SDS011;61877;48.246;9.220;2022-10-31T01:35:44;11.97;;;4.87;;
73599;SDS011;61877;48.246;9.220;2022-10-31T01:38:09;14.17;;;4.70;;
73599;SDS011;61877;48.246;9.220;2022-10-31T01:40:35;13.93;;;4.80;;
73599;SDS011;61877;48.246;9.220;2022-10-31T01:43:00;12.40;;;4.60;;
73599;SDS011;61877;48.246;9.220;2022-10-31T01:45:27;11.67;;;4.63;;
73599;SDS011;61877;48.246;9.220;2022-10-31T01:47:52;10.40;;;4.35;;
73599;SDS011;61877;48.246;9.220;2022-10-31T01:50:22;8.93;;;4.00;;
73599;SDS011;61877;48.246;9.220;2022-10-31T01:52:53;13.65;;;4.45;;
73599;SDS011;61877;48.246;9.220;2022-10-31T01:55:21;10.90;;;3.80;;
73599;SDS011;61877;48.246;9.220;2022-10-31T01:57:54;11.23;;;3.92;;
73599;SDS011;61877;48.246;9.220;2022-10-31T02:00:22;13.57;;;4.20;;
73599;SDS011;61877;48.246;9.220;2022-10-31T02:02:52;11.18;;;4.50;;
73599;SDS011;61877;48.246;9.220;2022-10-31T02:05:18;11.57;;;4.47;;
73599;SDS011;61877;48.246;9.220;2022-10-31T02:07:48;10.48;;;3.85;;
73599;SDS011;61877;48.246;9.220;2022-10-31T02:10:19;11.25;;;4.57;;
73599;SDS011;61877;48.246;9.220;2022-10-31T02:12:47;11.73;;;4.18;;
73599;SDS011;61877;48.246;9.220;2022-10-31T02:15:15;14.05;;;4.45;;
73599;SDS011;61877;48.246;9.220;2022-10-31T02:17:40;12.23;;;4.47;;
73599;SDS011;61877;48.246;9.220;2022-10-31T02:20:13;11.52;;;4.20;;
73599;SDS011;61877;48.246;9.220;2022-10-31T02:22:45;12.57;;;3.60;;
73599;SDS011;61877;48.246;9.220;2022-10-31T02:25:40;11.65;;;3.78;;
73599;SDS011;61877;48.246;9.220;2022-10-31T02:28:23;10.90;;;4.18;;
73599;SDS011;61877;48.246;9.220;2022-10-31T02:31:10;10.18;;;3.80;;
73599;SDS011;61877;48.246;9.220;2022-10-31T02:33:55;11.02;;;3.80;;
73599;SDS011;61877;48.246;9.220;2022-10-31T02:36:27;10.57;;;3.47;;
73599;SDS011;61877;48.246;9.220;2022-10-31T02:39:02;10.45;;;4.20;;
73599;SDS011;61877;48.246;9.220;2022-10-31T02:41:37;9.48;;;3.92;;
73599;SDS011;61877;48.246;9.220;2022-10-31T02:44:12;15.05;;;4.07;;
73599;SDS011;61877;48.246;9.220;2022-10-31T02:46:48;11.02;;;4.05;;
73599;SDS011;61877;48.246;9.220;2022-10-31T02:49:16;10.80;;;3.60;;
73599;SDS011;61877;48.246;9.220;2022-10-31T02:51:48;9.65;;;4.18;;
73599;SDS011;61877;48.246;9.220;2022-10-31T02:54:17;10.15;;;4.47;;
73599;SDS011;61877;48.246;9.220;2022-10-31T02:56:46;11.20;;;3.85;;
73599;SDS011;61877;48.246;9.220;2022-10-31T02:59:13;11.00;;;3.78;;
73599;SDS011;61877;48.246;9.220;2022-10-31T03:01:45;10.73;;;3.97;;
73599;SDS011;61877;48.246;9.220;2022-10-31T03:07:24;9.80;;;4.35;;
73599;SDS011;61877;48.246;9.220;2022-10-31T03:09:59;9.40;;;3.92;;
73599;SDS011;61877;48.246;9.220;2022-10-31T03:12:30;11.25;;;4.13;;
73599;SDS011;61877;48.246;9.220;2022-10-31T03:15:05;11.33;;;4.57;;
73599;SDS011;61877;48.246;9.220;2022-10-31T03:17:40;13.65;;;4.93;;
73599;SDS011;61877;48.246;9.220;2022-10-31T03:20:15;11.55;;;4.35;;
73599;SDS011;61877;48.246;9.220;2022-10-31T03:22:46;12.77;;;4.05;;
73599;SDS011;61877;48.246;9.220;2022-10-31T03:25:12;12.48;;;3.90;;
73599;SDS011;61877;48.246;9.220;2022-10-31T03:27:39;11.40;;;3.97;;
73599;SDS011;61877;48.246;9.220;2022-10-31T03:30:08;9.70;;;3.90;;
73599;SDS011;61877;48.246;9.220;2022-10-31T03:32:35;9.93;;;4.10;;
73599;SDS011;61877;48.246;9.220;2022-10-31T03:35:06;14.73;;;4.10;;
73599;SDS011;61877;48.246;9.220;2022-10-31T03:37:37;9.48;;;4.05;;
73599;SDS011;61877;48.246;9.220;2022-10-31T03:40:05;11.57;;;4.23;;
73599;SDS011;61877;48.246;9.220;2022-10-31T03:42:34;10.32;;;4.05;;
73599;SDS011;61877;48.246;9.220;2022-10-31T03:45:03;12.73;;;4.50;;
73599;SDS011;61877;48.246;9.220;2022-10-31T03:47:31;11.48;;;4.47;;
73599;SDS011;61877;48.246;9.220;2022-10-31T03:49:57;13.40;;;4.63;;
73599;SDS011;61877;48.246;9.220;2022-10-31T03:52:25;12.20;;;4.53;;
73599;SDS011;61877;48.246;9.220;2022-10-31T03:54:57;11.38;;;4.57;;
73599;SDS011;61877;48.246;9.220;2022-10-31T03:57:29;11.45;;;4.93;;
73599;SDS011;61877;48.246;9.220;2022-10-31T04:00:03;14.03;;;4.60;;
73599;SDS011;61877;48.246;9.220;2022-10-31T04:02:31;11.32;;;4.60;;
73599;SDS011;61877;48.246;9.220;2022-10-31T04:04:59;14.02;;;4.80;;
73599;SDS011;61877;48.246;9.220;2022-10-31T04:07:28;10.52;;;3.90;;
73599;SDS011;61877;48.246;9.220;2022-10-31T04:09:58;10.57;;;4.53;;
73599;SDS011;61877;48.246;9.220;2022-10-31T04:12:27;11.53;;;4.10;;
73599;SDS011;61877;48.246;9.220;2022-10-31T04:14:54;12.70;;;4.60;;
73599;SDS011;61877;48.246;9.220;2022-10-31T04:17:21;13.95;;;4.45;;
73599;SDS011;61877;48.246;9.220;2022-10-31T04:19:50;12.02;;;4.15;;
73599;SDS011;61877;48.246;9.220;2022-10-31T04:22:16;11.67;;;4.43;;
73599;SDS011;61877;48.246;9.220;2022-10-31T04:24:43;13.13;;;4.60;;
73599;SDS011;61877;48.246;9.220;2022-10-31T04:27:11;10.95;;;4.90;;
73599;SDS011;61877;48.246;9.220;2022-10-31T04:29:36;13.55;;;4.85;;
73599;SDS011;61877;48.246;9.220;2022-10-31T04:32:02;10.10;;;4.40;;
73599;SDS011;61877;48.246;9.220;2022-10-31T04:34:27;11.17;;;4.70;;
73599;SDS011;61877;48.246;9.220;2022-10-31T04:36:53;11.43;;;4.07;;
73599;SDS011;61877;48.246;9.220;2022-10-31T04:39:18;10.07;;;4.20;;
73599;SDS011;61877;48.246;9.220;2022-10-31T04:41:45;11.77;;;4.50;;
73599;SDS011;61877;48.246;9.220;2022-10-31T04:44:11;11.35;;;4.72;;
73599;SDS011;61877;48.246;9.220;2022-10-31T04:46:36;13.75;;;4.60;;
73599;SDS011;61877;48.246;9.220;2022-10-31T04:49:02;10.03;;;4.17;;
73599;SDS011;61877;48.246;9.220;2022-10-31T04:51:27;13.57;;;4.67;;
73599;SDS011;61877;48.246;9.220;2022-10-31T04:53:52;11.73;;;4.50;;
73599;SDS011;61877;48.246;9.220;2022-10-31T04:56:23;12.30;;;4.88;;
73599;SDS011;61877;48.246;9.220;2022-10-31T04:58:52;11.97;;;4.00;;
73599;SDS011;61877;48.246;9.220;2022-10-31T05:01:18;10.07;;;4.28;;
73599;SDS011;61877;48.246;9.220;2022-10-31T05:03:44;12.10;;;5.10;;
73599;SDS011;61877;48.246;9.220;2022-10-31T05:06:09;12.10;;;4.47;;
73599;SDS011;61877;48.246;9.220;2022-10-31T05:08:35;9.10;;;3.93;;
73599;SDS011;61877;48.246;9.220;2022-10-31T05:11:00;9.95;;;4.38;;
73599;SDS011;61877;48.246;9.220;2022-10-31T05:13:26;15.13;;;5.60;;
73599;SDS011;61877;48.246;9.220;2022-10-31T05:15:53;12.48;;;5.15;;
73599;SDS011;61877;48.246;9.220;2022-10-31T05:18:18;16.20;;;5.77;;
73599;SDS011;61877;48.246;9.220;2022-10-31T05:20:44;15.70;;;5.57;;
73599;SDS011;61877;48.246;9.220;2022-10-31T05:23:09;12.90;;;5.20;;
73599;SDS011;61877;48.246;9.220;2022-10-31T05:25:34;12.20;;;5.13;;
73599;SDS011;61877;48.246;9.220;2022-10-31T05:28:00;12.30;;;4.90;;
73599;SDS011;61877;48.246;9.220;2022-10-31T05:30:27;12.93;;;5.18;;
73599;SDS011;61877;48.246;9.220;2022-10-31T05:32:55;14.20;;;5.68;;
73599;SDS011;61877;48.246;9.220;2022-10-31T05:35:22;14.77;;;5.22;;
73599;SDS011;61877;48.246;9.220;2022-10-31T05:37:49;12.90;;;4.70;;
73599;SDS011;61877;48.246;9.220;2022-10-31T05:40:15;12.63;;;5.00;;
73599;SDS011;61877;48.246;9.220;2022-10-31T05:42:42;12.63;;;5.75;;
73599;SDS011;61877;48.246;9.220;2022-10-31T05:45:08;14.63;;;5.75;;
73599;SDS011;61877;48.246;9.220;2022-10-31T05:47:35;12.93;;;5.37;;
73599;SDS011;61877;48.246;9.220;2022-10-31T05:50:06;12.65;;;5.18;;
73599;SDS011;61877;48.246;9.220;2022-10-31T05:52:33;11.40;;;4.90;;
73599;SDS011;61877;48.246;9.220;2022-10-31T05:55:02;13.27;;;5.43;;
73599;SDS011;61877;48.246;9.220;2022-10-31T05:57:31;11.27;;;5.32;;
73599;SDS011;61877;48.246;9.220;2022-10-31T05:59:57;12.23;;;5.40;;
73599;SDS011;61877;48.246;9.220;2022-10-31T06:02:23;13.43;;;5.20;;
73599;SDS011;61877;48.246;9.220;2022-10-31T06:04:48;12.60;;;4.95;;
73599;SDS011;61877;48.246;9.220;2022-10-31T06:07:23;11.00;;;4.70;;
73599;SDS011;61877;48.246;9.220;2022-10-31T06:12:48;10.55;;;4.40;;
73599;SDS011;61877;48.246;9.220;2022-10-31T06:15:14;11.30;;;3.90;;
73599;SDS011;61877;48.246;9.220;2022-10-31T06:20:30;13.52;;;4.72;;
73599;SDS011;61877;48.246;9.220;2022-10-31T06:26:01;12.55;;;5.43;;
73599;SDS011;61877;48.246;9.220;2022-10-31T06:28:36;11.85;;;5.22;;
73599;SDS011;61877;48.246;9.220;2022-10-31T06:31:10;15.48;;;7.10;;
73599;SDS011;61877;48.246;9.220;2022-10-31T06:33:42;14.45;;;7.20;;
73599;SDS011;61877;48.246;9.220;2022-10-31T06:36:12;14.17;;;6.97;;
73599;SDS011;61877;48.246;9.220;2022-10-31T06:38:47;13.98;;;6.47;;
73599;SDS011;61877;48.246;9.220;2022-10-31T06:41:15;10.73;;;5.47;;
73599;SDS011;61877;48.246;9.220;2022-10-31T06:43:40;11.93;;;5.20;;
73599;SDS011;61877;48.246;9.220;2022-10-31T06:46:12;11.73;;;5.10;;
73599;SDS011;61877;48.246;9.220;2022-10-31T06:48:52;11.30;;;4.55;;
73599;SDS011;61877;48.246;9.220;2022-10-31T06:51:35;12.43;;;5.38;;
73599;SDS011;61877;48.246;9.220;2022-10-31T06:54:15;13.60;;;5.13;;
73599;SDS011;61877;48.246;9.220;2022-10-31T06:59:43;13.35;;;6.32;;
73599;SDS011;61877;48.246;9.220;2022-10-31T07:02:09;15.70;;;6.30;;
73599;SDS011;61877;48.246;9.220;2022-10-31T07:04:35;11.82;;;5.38;;
73599;SDS011;61877;48.246;9.220;2022-10-31T07:07:00;11.80;;;5.40;;
73599;SDS011;61877;48.246;9.220;2022-10-31T07:09:27;14.15;;;6.07;;
73599;SDS011;61877;48.246;9.220;2022-10-31T07:11:53;12.73;;;6.70;;
73599;SDS011;61877;48.246;9.220;2022-10-31T07:14:18;14.37;;;6.00;;
73599;SDS011;61877;48.246;9.220;2022-10-31T07:16:47;12.90;;;6.55;;
73599;SDS011;61877;48.246;9.220;2022-10-31T07:19:13;14.43;;;6.63;;
73599;SDS011;61877;48.246;9.220;2022-10-31T07:21:38;15.90;;;7.50;;
73599;SDS011;61877;48.246;9.220;2022-10-31T07:24:04;16.07;;;8.10;;
73599;SDS011;61877;48.246;9.220;2022-10-31T07:26:31;17.03;;;8.73;;
73599;SDS011;61877;48.246;9.220;2022-10-31T07:28:57;20.73;;;9.32;;
73599;SDS011;61877;48.246;9.220;2022-10-31T07:31:22;18.13;;;9.03;;
73599;SDS011;61877;48.246;9.220;2022-10-31T07:33:48;16.05;;;7.90;;
73599;SDS011;61877;48.246;9.220;2022-10-31T07:36:13;14.93;;;7.33;;
73599;SDS011;61877;48.246;9.220;2022-10-31T07:38:38;22.07;;;8.23;;
73599;SDS011;61877;48.246;9.220;2022-10-31T07:41:04;17.13;;;8.00;;
73599;SDS011;61877;48.246;9.220;2022-10-31T07:43:31;17.93;;;8.20;;
73599;SDS011;61877;48.246;9.220;2022-10-31T07:45:56;19.75;;;7.97;;
73599;SDS011;61877;48.246;9.220;2022-10-31T07:48:22;18.50;;;8.17;;
73599;SDS011;61877;48.246;9.220;2022-10-31T07:50:47;16.13;;;7.65;;
73599;SDS011;61877;48.246;9.220;2022-10-31T07:53:13;18.17;;;7.47;;
73599;SDS011;61877;48.246;9.220;2022-10-31T07:55:40;17.60;;;7.47;;
73599;SDS011;61877;48.246;9.220;2022-10-31T07:58:07;19.87;;;6.97;;
73599;SDS011;61877;48.246;9.220;2022-10-31T08:00:35;16.73;;;7.13;;
73599;SDS011;61877;48.246;9.220;2022-10-31T08:03:02;17.30;;;7.10;;
73599;SDS011;61877;48.246;9.220;2022-10-31T08:05:29;16.65;;;7.18;;
73599;SDS011;61877;48.246;9.220;2022-10-31T08:07:55;15.70;;;6.97;;
73599;SDS011;61877;48.246;9.220;2022-10-31T08:10:21;15.87;;;7.40;;
73599;SDS011;61877;48.246;9.220;2022-10-31T08:12:54;14.20;;;6.85;;
73599;SDS011;61877;48.246;9.220;2022-10-31T08:15:20;15.25;;;6.95;;
73599;SDS011;61877;48.246;9.220;2022-10-31T08:17:47;14.30;;;6.70;;
73599;SDS011;61877;48.246;9.220;2022-10-31T08:20:13;15.07;;;7.05;;
73599;SDS011;61877;48.246;9.220;2022-10-31T08:22:38;14.33;;;6.90;;
73599;SDS011;61877;48.246;9.220;2022-10-31T08:25:04;13.77;;;7.13;;
73599;SDS011;61877;48.246;9.220;2022-10-31T08:27:33;14.10;;;6.17;;
73599;SDS011;61877;48.246;9.220;2022-10-31T08:30:01;14.68;;;6.82;;
73599;SDS011;61877;48.246;9.220;2022-10-31T08:32:29;14.27;;;6.68;;
73599;SDS011;61877;48.246;9.220;2022-10-31T08:34:56;16.23;;;7.40;;
73599;SDS011;61877;48.246;9.220;2022-10-31T08:37:21;16.08;;;8.02;;
73599;SDS011;61877;48.246;9.220;2022-10-31T08:39:47;13.03;;;6.53;;
73599;SDS011;61877;48.246;9.220;2022-10-31T08:42:12;15.38;;;6.70;;
73599;SDS011;61877;48.246;9.220;2022-10-31T08:44:38;13.83;;;5.83;;
73599;SDS011;61877;48.246;9.220;2022-10-31T08:47:03;14.77;;;6.20;;
73599;SDS011;61877;48.246;9.220;2022-10-31T08:49:34;17.05;;;7.47;;
73599;SDS011;61877;48.246;9.220;2022-10-31T08:52:26;14.82;;;6.43;;
73599;SDS011;61877;48.246;9.220;2022-10-31T08:54:51;13.00;;;6.50;;
73599;SDS011;61877;48.246;9.220;2022-10-31T08:57:16;14.30;;;6.03;;
73599;SDS011;61877;48.246;9.220;2022-10-31T08:59:42;15.20;;;6.77;;
73599;SDS011;61877;48.246;9.220;2022-10-31T09:02:07;17.60;;;7.10;;
73599;SDS011;61877;48.246;9.220;2022-10-31T09:04:36;15.27;;;6.28;;
73599;SDS011;61877;48.246;9.220;2022-10-31T09:07:03;12.67;;;5.83;;
73599;SDS011;61877;48.246;9.220;2022-10-31T09:09:28;12.25;;;5.85;;
73599;SDS011;61877;48.246;9.220;2022-10-31T09:11:54;14.43;;;5.77;;
73599;SDS011;61877;48.246;9.220;2022-10-31T09:14:19;14.63;;;5.77;;
73599;SDS011;61877;48.246;9.220;2022-10-31T09:16:44;12.70;;;5.90;;
73599;SDS011;61877;48.246;9.220;2022-10-31T09:19:12;15.88;;;5.88;;
73599;SDS011;61877;48.246;9.220;2022-10-31T09:21:38;14.55;;;6.00;;
73599;SDS011;61877;48.246;9.220;2022-10-31T09:24:06;11.43;;;5.40;;
73599;SDS011;61877;48.246;9.220;2022-10-31T09:26:32;12.65;;;6.75;;
73599;SDS011;61877;48.246;9.220;2022-10-31T09:28:58;16.73;;;6.40;;
73599;SDS011;61877;48.246;9.220;2022-10-31T09:31:24;13.17;;;6.03;;
73599;SDS011;61877;48.246;9.220;2022-10-31T09:33:49;12.33;;;5.93;;
73599;SDS011;61877;48.246;9.220;2022-10-31T09:36:14;12.33;;;6.20;;
73599;SDS011;61877;48.246;9.220;2022-10-31T09:38:40;13.77;;;6.50;;
73599;SDS011;61877;48.246;9.220;2022-10-31T09:41:09;13.63;;;5.60;;
73599;SDS011;61877;48.246;9.220;2022-10-31T09:43:47;12.77;;;6.03;;
73599;SDS011;61877;48.246;9.220;2022-10-31T09:46:24;12.67;;;6.23;;
73599;SDS011;61877;48.246;9.220;2022-10-31T09:49:16;14.65;;;6.15;;
73599;SDS011;61877;48.246;9.220;2022-10-31T09:52:04;13.10;;;6.60;;
73599;SDS011;61877;48.246;9.220;2022-10-31T09:54:36;13.00;;;6.80;;
73599;SDS011;61877;48.246;9.220;2022-10-31T09:57:09;13.98;;;6.30;;
73599;SDS011;61877;48.246;9.220;2022-10-31T09:59:38;12.40;;;6.30;;
73599;SDS011;61877;48.246;9.220;2022-10-31T10:02:11;16.38;;;6.90;;
73599;SDS011;61877;48.246;9.220;2022-10-31T10:04:44;15.27;;;7.07;;
73599;SDS011;61877;48.246;9.220;2022-10-31T10:07:19;14.32;;;6.80;;
73599;SDS011;61877;48.246;9.220;2022-10-31T10:09:53;12.55;;;6.55;;
73599;SDS011;61877;48.246;9.220;2022-10-31T10:12:23;16.53;;;6.63;;
73599;SDS011;61877;48.246;9.220;2022-10-31T10:15:09;14.38;;;6.82;;
73599;SDS011;61877;48.246;9.220;2022-10-31T10:17:51;16.48;;;6.47;;
73599;SDS011;61877;48.246;9.220;2022-10-31T10:20:28;14.13;;;6.47;;
73599;SDS011;61877;48.246;9.220;2022-10-31T10:23:07;14.23;;;6.20;;
73599;SDS011;61877;48.246;9.220;2022-10-31T10:25:43;13.02;;;6.25;;
73599;SDS011;61877;48.246;9.220;2022-10-31T10:28:17;13.68;;;6.90;;
73599;SDS011;61877;48.246;9.220;2022-10-31T10:30:48;14.88;;;6.70;;
73599;SDS011;61877;48.246;9.220;2022-10-31T10:33:19;14.05;;;6.20;;
73599;SDS011;61877;48.246;9.220;2022-10-31T10:35:49;13.47;;;6.63;;
73599;SDS011;61877;48.246;9.220;2022-10-31T10:38:22;14.85;;;6.90;;
73599;SDS011;61877;48.246;9.220;2022-10-31T10:40:52;13.52;;;6.47;;
73599;SDS011;61877;48.246;9.220;2022-10-31T10:43:24;11.93;;;6.50;;
73599;SDS011;61877;48.246;9.220;2022-10-31T10:45:59;12.85;;;6.45;;
73599;SDS011;61877;48.246;9.220;2022-10-31T10:48:36;13.10;;;6.70;;
73599;SDS011;61877;48.246;9.220;2022-10-31T10:51:08;14.18;;;6.97;;
73599;SDS011;61877;48.246;9.220;2022-10-31T10:53:44;13.10;;;5.63;;
73599;SDS011;61877;48.246;9.220;2022-10-31T10:56:15;12.10;;;6.28;;
73599;SDS011;61877;48.246;9.220;2022-10-31T10:58:53;14.85;;;6.55;;
73599;SDS011;61877;48.246;9.220;2022-10-31T11:01:21;11.00;;;6.00;;
73599;SDS011;61877;48.246;9.220;2022-10-31T11:03:47;13.73;;;6.15;;
73599;SDS011;61877;48.246;9.220;2022-10-31T11:06:16;13.83;;;6.37;;
73599;SDS011;61877;48.246;9.220;2022-10-31T11:08:43;12.57;;;6.70;;
73599;SDS011;61877;48.246;9.220;2022-10-31T11:11:10;13.38;;;6.35;;
73599;SDS011;61877;48.246;9.220;2022-10-31T11:13:45;13.70;;;6.50;;
73599;SDS011;61877;48.246;9.220;2022-10-31T11:16:15;16.95;;;6.72;;
73599;SDS011;61877;48.246;9.220;2022-10-31T11:18:53;13.07;;;6.15;;
73599;SDS011;61877;48.246;9.220;2022-10-31T11:21:31;13.52;;;5.95;;
73599;SDS011;61877;48.246;9.220;2022-10-31T11:24:04;12.73;;;5.88;;
73599;SDS011;61877;48.246;9.220;2022-10-31T11:26:37;12.50;;;5.20;;
73599;SDS011;61877;48.246;9.220;2022-10-31T11:29:04;14.07;;;6.18;;
73599;SDS011;61877;48.246;9.220;2022-10-31T11:31:31;12.60;;;6.38;;
73599;SDS011;61877;48.246;9.220;2022-10-31T11:34:00;11.45;;;5.65;;
73599;SDS011;61877;48.246;9.220;2022-10-31T11:36:29;15.18;;;6.50;;
73599;SDS011;61877;48.246;9.220;2022-10-31T11:38:56;13.47;;;5.90;;
73599;SDS011;61877;48.246;9.220;2022-10-31T11:41:24;13.10;;;6.10;;
73599;SDS011;61877;48.246;9.220;2022-10-31T11:43:54;12.13;;;5.95;;
73599;SDS011;61877;48.246;9.220;2022-10-31T11:46:23;12.65;;;6.03;;
73599;SDS011;61877;48.246;9.220;2022-10-31T11:48:56;14.23;;;5.45;;
73599;SDS011;61877;48.246;9.220;2022-10-31T11:51:22;13.73;;;6.27;;
73599;SDS011;61877;48.246;9.220;2022-10-31T11:53:51;12.80;;;5.38;;
73599;SDS011;61877;48.246;9.220;2022-10-31T11:56:18;12.57;;;5.27;;
73599;SDS011;61877;48.246;9.220;2022-10-31T11:58:54;13.45;;;6.15;;
73599;SDS011;61877;48.246;9.220;2022-10-31T12:01:22;12.83;;;6.30;;
73599;SDS011;61877;48.246;9.220;2022-10-31T12:03:53;13.00;;;5.43;;
73599;SDS011;61877;48.246;9.220;2022-10-31T12:06:26;15.85;;;5.63;;
73599;SDS011;61877;48.246;9.220;2022-10-31T12:08:56;13.40;;;5.60;;
73599;SDS011;61877;48.246;9.220;2022-10-31T12:11:33;12.67;;;5.57;;
73599;SDS011;61877;48.246;9.220;2022-10-31T12:14:11;10.48;;;5.13;;
73599;SDS011;61877;48.246;9.220;2022-10-31T12:16:46;13.63;;;5.40;;
73599;SDS011;61877;48.246;9.220;2022-10-31T12:19:19;11.10;;;5.60;;
73599;SDS011;61877;48.246;9.220;2022-10-31T12:21:59;14.30;;;5.82;;
73599;SDS011;61877;48.246;9.220;2022-10-31T12:24:35;11.25;;;5.70;;
73599;SDS011;61877;48.246;9.220;2022-10-31T12:27:19;14.80;;;6.43;;
73599;SDS011;61877;48.246;9.220;2022-10-31T12:30:01;14.45;;;6.10;;
73599;SDS011;61877;48.246;9.220;2022-10-31T12:32:38;17.40;;;5.80;;
73599;SDS011;61877;48.246;9.220;2022-10-31T12:35:24;11.18;;;4.20;;
73599;SDS011;61877;48.246;9.220;2022-10-31T12:38:03;13.30;;;4.40;;
73599;SDS011;61877;48.246;9.220;2022-10-31T12:43:43;11.88;;;4.50;;
73599;SDS011;61877;48.246;9.220;2022-10-31T12:46:13;13.37;;;4.10;;
73599;SDS011;61877;48.246;9.220;2022-10-31T12:48:50;11.05;;;4.45;;
73599;SDS011;61877;48.246;9.220;2022-10-31T12:51:29;11.32;;;4.25;;
73599;SDS011;61877;48.246;9.220;2022-10-31T12:54:08;10.73;;;4.47;;
73599;SDS011;61877;48.246;9.220;2022-10-31T12:56:45;11.57;;;4.60;;
73599;SDS011;61877;48.246;9.220;2022-10-31T12:59:21;13.60;;;4.30;;
73599;SDS011;61877;48.246;9.220;2022-10-31T13:01:54;13.60;;;4.80;;
73599;SDS011;61877;48.246;9.220;2022-10-31T13:04:30;12.25;;;4.80;;
73599;SDS011;61877;48.246;9.220;2022-10-31T13:07:03;12.68;;;4.30;;
73599;SDS011;61877;48.246;9.220;2022-10-31T13:09:36;12.50;;;3.85;;
73599;SDS011;61877;48.246;9.220;2022-10-31T13:12:04;11.40;;;4.17;;
73599;SDS011;61877;48.246;9.220;2022-10-31T13:14:35;13.48;;;3.97;;
73599;SDS011;61877;48.246;9.220;2022-10-31T13:17:04;14.88;;;4.70;;
73599;SDS011;61877;48.246;9.220;2022-10-31T13:19:33;10.80;;;4.03;;
73599;SDS011;61877;48.246;9.220;2022-10-31T13:22:04;12.38;;;4.38;;
73599;SDS011;61877;48.246;9.220;2022-10-31T13:24:35;11.13;;;4.17;;
73599;SDS011;61877;48.246;9.220;2022-10-31T13:27:09;11.70;;;4.00;;
73599;SDS011;61877;48.246;9.220;2022-10-31T13:29:39;13.27;;;4.63;;
73599;SDS011;61877;48.246;9.220;2022-10-31T13:32:12;13.00;;;4.25;;
73599;SDS011;61877;48.246;9.220;2022-10-31T13:34:39;12.00;;;4.33;;
73599;SDS011;61877;48.246;9.220;2022-10-31T13:37:10;11.35;;;4.10;;
73599;SDS011;61877;48.246;9.220;2022-10-31T13:39:48;11.45;;;3.97;;
73599;SDS011;61877;48.246;9.220;2022-10-31T13:42:23;11.85;;;4.65;;
73599;SDS011;61877;48.246;9.220;2022-10-31T13:45:06;10.87;;;3.83;;
73599;SDS011;61877;48.246;9.220;2022-10-31T13:47:36;11.15;;;3.83;;
73599;SDS011;61877;48.246;9.220;2022-10-31T13:50:03;11.33;;;4.10;;
73599;SDS011;61877;48.246;9.220;2022-10-31T13:52:30;11.20;;;4.35;;
73599;SDS011;61877;48.246;9.220;2022-10-31T13:54:57;10.02;;;3.72;;
73599;SDS011;61877;48.246;9.220;2022-10-31T13:57:25;10.33;;;4.33;;
73599;SDS011;61877;48.246;9.220;2022-10-31T13:59:56;12.18;;;3.90;;
73599;SDS011;61877;48.246;9.220;2022-10-31T14:02:25;10.50;;;3.90;;
73599;SDS011;61877;48.246;9.220;2022-10-31T14:04:53;11.32;;;4.03;;
73599;SDS011;61877;48.246;9.220;2022-10-31T14:07:22;11.65;;;3.88;;
73599;SDS011;61877;48.246;9.220;2022-10-31T14:09:52;10.03;;;3.83;;
73599;SDS011;61877;48.246;9.220;2022-10-31T14:12:23;13.02;;;3.75;;
73599;SDS011;61877;48.246;9.220;2022-10-31T14:14:52;11.00;;;3.67;;
73599;SDS011;61877;48.246;9.220;2022-10-31T14:17:23;13.75;;;4.10;;
73599;SDS011;61877;48.246;9.220;2022-10-31T14:20:19;9.82;;;3.85;;
73599;SDS011;61877;48.246;9.220;2022-10-31T14:22:49;10.80;;;3.63;;
73599;SDS011;61877;48.246;9.220;2022-10-31T14:25:28;11.27;;;4.00;;
73599;SDS011;61877;48.246;9.220;2022-10-31T14:27:58;11.25;;;4.20;;
73599;SDS011;61877;48.246;9.220;2022-10-31T14:30:25;9.50;;;3.50;;
73599;SDS011;61877;48.246;9.220;2022-10-31T14:32:54;11.77;;;4.18;;
73599;SDS011;61877;48.246;9.220;2022-10-31T14:35:23;12.38;;;4.32;;
73599;SDS011;61877;48.246;9.220;2022-10-31T14:38:02;10.40;;;3.95;;
73599;SDS011;61877;48.246;9.220;2022-10-31T14:40:40;9.85;;;4.47;;
73599;SDS011;61877;48.246;9.220;2022-10-31T14:43:25;12.87;;;4.40;;
73599;SDS011;61877;48.246;9.220;2022-10-31T14:46:07;13.57;;;4.75;;
73599;SDS011;61877;48.246;9.220;2022-10-31T14:48:50;12.15;;;4.55;;
73599;SDS011;61877;48.246;9.220;2022-10-31T14:51:26;12.95;;;4.63;;
73599;SDS011;61877;48.246;9.220;2022-10-31T14:53:58;13.48;;;4.78;;
73599;SDS011;61877;48.246;9.220;2022-10-31T14:56:25;11.60;;;4.43;;
73599;SDS011;61877;48.246;9.220;2022-10-31T14:58:54;12.25;;;4.22;;
73599;SDS011;61877;48.246;9.220;2022-10-31T15:01:24;11.40;;;4.00;;
73599;SDS011;61877;48.246;9.220;2022-10-31T15:03:51;8.98;;;4.07;;
73599;SDS011;61877;48.246;9.220;2022-10-31T15:06:18;12.07;;;4.00;;
73599;SDS011;61877;48.246;9.220;2022-10-31T15:08:47;12.30;;;3.80;;